sensor_id;sensor_type;location;lat;lon;timestamp;pressure;altitude;pressure_sealevel;temperature;humidity
17615;BME280;8926;49.720;6.576;2023-05-01T00:02:12;99725.78;;;12.77;67.11
17615;BME280;8926;49.720;6.576;2023-05-01T00:04:37;99725.78;;;12.77;66.75
17615;BME280;8926;49.720;6.576;2023-05-01T00:07:02;99720.53;;;12.77;67.85
17615;BME280;8926;49.720;6.576;2023-05-01T00:09:27;99710.47;;;12.71;68.04
17615;BME280;8926;49.720;6.576;2023-05-01T00:11:53;99712.16;;;12.72;67.73
17615;BME280;8926;49.720;6.576;2023-05-01T00:14:18;99710.47;;;12.71;67.94
17615;BME280;8926;49.720;6.576;2023-05-01T00:16:43;99704.59;;;12.68;67.48
17615;BME280;8926;49.720;6.576;2023-05-01T00:19:10;99700.38;;;12.65;67.66
17615;BME280;8926;49.720;6.576;2023-05-01T00:21:36;99696.84;;;12.66;66.63
17615;BME280;8926;49.720;6.576;2023-05-01T00:24:02;99695.16;;;12.65;67.05
17615;BME280;8926;49.720;6.576;2023-05-01T00:26:27;99694.09;;;12.68;66.92
17615;BME280;8926;49.720;6.576;2023-05-01T00:28:55;99694.75;;;12.71;67.30
17615;BME280;8926;49.720;6.576;2023-05-01T00:31:23;99693.91;;;12.71;66.92
17615;BME280;8926;49.720;6.576;2023-05-01T00:33:48;99682.78;;;12.67;67.67
17615;BME280;8926;49.720;6.576;2023-05-01T00:36:14;99677.75;;;12.64;68.17
17615;BME280;8926;49.720;6.576;2023-05-01T00:38:39;99683.94;;;12.63;67.88
17615;BME280;8926;49.720;6.576;2023-05-01T00:41:04;99677.94;;;12.61;67.90
17615;BME280;8926;49.720;6.576;2023-05-01T00:43:29;99672.69;;;12.61;67.37
17615;BME280;8926;49.720;6.576;2023-05-01T00:45:55;99679.63;;;12.62;67.54
17615;BME280;8926;49.720;6.576;2023-05-01T00:48:20;99679.41;;;12.65;67.78
17615;BME280;8926;49.720;6.576;2023-05-01T00:50:46;99667.06;;;12.67;67.77
17615;BME280;8926;49.720;6.576;2023-05-01T00:53:13;99672.31;;;12.67;67.45
17615;BME280;8926;49.720;6.576;2023-05-01T00:55:40;99673.25;;;12.66;67.47
17615;BME280;8926;49.720;6.576;2023-05-01T00:58:06;99669.78;;;12.66;68.13
17615;BME280;8926;49.720;6.576;2023-05-01T01:00:31;99670.53;;;12.68;68.20
17615;BME280;8926;49.720;6.576;2023-05-01T01:02:57;99667.25;;;12.64;68.08
17615;BME280;8926;49.720;6.576;2023-05-01T01:05:24;99666.63;;;12.61;68.39
17615;BME280;8926;49.720;6.576;2023-05-01T01:08:17;99658.66;;;12.62;68.51
17615;BME280;8926;49.720;6.576;2023-05-01T01:18:49;99655.69;;;12.54;69.27
17615;BME280;8926;49.720;6.576;2023-05-01T01:21:38;99654.22;;;12.50;69.08
17615;BME280;8926;49.720;6.576;2023-05-01T01:27:30;99655.91;;;12.51;69.08
17615;BME280;8926;49.720;6.576;2023-05-01T01:35:54;99646.69;;;12.45;69.77
17615;BME280;8926;49.720;6.576;2023-05-01T01:38:26;99638.72;;;12.47;70.29
17615;BME280;8926;49.720;6.576;2023-05-01T01:41:00;99640.38;;;12.48;70.16
17615;BME280;8926;49.720;6.576;2023-05-01T01:43:32;99647.28;;;12.49;69.89
17615;BME280;8926;49.720;6.576;2023-05-01T01:46:04;99646.44;;;12.48;70.52
17615;BME280;8926;49.720;6.576;2023-05-01T01:48:35;99645.63;;;12.48;69.90
17615;BME280;8926;49.720;6.576;2023-05-01T01:51:07;99633.25;;;12.50;69.17
17615;BME280;8926;49.720;6.576;2023-05-01T01:53:33;99641.84;;;12.52;69.60
17615;BME280;8926;49.720;6.576;2023-05-01T01:56:01;99639.78;;;12.57;67.45
17615;BME280;8926;49.720;6.576;2023-05-01T01:58:29;99635.56;;;12.54;69.30
17615;BME280;8926;49.720;6.576;2023-05-01T02:00:56;99633.59;;;12.58;69.91
17615;BME280;8926;49.720;6.576;2023-05-01T02:03:22;99635.16;;;12.61;69.92
17615;BME280;8926;49.720;6.576;2023-05-01T02:05:48;99632.66;;;12.59;69.49
17615;BME280;8926;49.720;6.576;2023-05-01T02:08:15;99629.09;;;12.60;69.39
17615;BME280;8926;49.720;6.576;2023-05-01T02:10:42;99622.25;;;12.57;69.00
17615;BME280;8926;49.720;6.576;2023-05-01T02:13:09;99630.22;;;12.56;69.89
17615;BME280;8926;49.720;6.576;2023-05-01T02:15:37;99625.72;;;12.58;69.68
17615;BME280;8926;49.720;6.576;2023-05-01T02:18:03;99624.47;;;12.64;68.62
17615;BME280;8926;49.720;6.576;2023-05-01T02:20:29;99625.53;;;12.61;69.77
17615;BME280;8926;49.720;6.576;2023-05-01T02:22:56;99625.72;;;12.58;69.29
17615;BME280;8926;49.720;6.576;2023-05-01T02:25:22;99615.44;;;12.55;69.83
17615;BME280;8926;49.720;6.576;2023-05-01T02:27:56;99625.94;;;12.55;69.22
17615;BME280;8926;49.720;6.576;2023-05-01T02:30:24;99619.00;;;12.54;68.91
17615;BME280;8926;49.720;6.576;2023-05-01T02:32:49;99613.22;;;12.49;70.02
17615;BME280;8926;49.720;6.576;2023-05-01T02:35:15;99615.34;;;12.44;69.64
17615;BME280;8926;49.720;6.576;2023-05-01T02:37:41;99606.00;;;12.40;69.77
17615;BME280;8926;49.720;6.576;2023-05-01T02:40:07;99604.97;;;12.42;69.71
17615;BME280;8926;49.720;6.576;2023-05-01T02:42:33;99604.13;;;12.42;69.02
17615;BME280;8926;49.720;6.576;2023-05-01T02:45:05;99595.53;;;12.40;69.66
17615;BME280;8926;49.720;6.576;2023-05-01T02:47:34;99595.53;;;12.40;69.28
17615;BME280;8926;49.720;6.576;2023-05-01T02:50:01;99595.53;;;12.40;70.21
17615;BME280;8926;49.720;6.576;2023-05-01T02:52:28;99593.63;;;12.42;69.98
17615;BME280;8926;49.720;6.576;2023-05-01T02:54:54;99592.69;;;12.43;68.99
17615;BME280;8926;49.720;6.576;2023-05-01T02:57:20;99592.16;;;12.50;68.34
17615;BME280;8926;49.720;6.576;2023-05-01T02:59:45;99590.28;;;12.40;69.56
17615;BME280;8926;49.720;6.576;2023-05-01T03:02:11;99586.81;;;12.39;71.02
17615;BME280;8926;49.720;6.576;2023-05-01T03:04:36;99584.09;;;12.41;70.57
17615;BME280;8926;49.720;6.576;2023-05-01T03:07:02;99586.00;;;12.39;70.69
17615;BME280;8926;49.720;6.576;2023-05-01T03:09:28;99585.88;;;12.40;71.17
17615;BME280;8926;49.720;6.576;2023-05-01T03:11:54;99577.09;;;12.41;71.17
17615;BME280;8926;49.720;6.576;2023-05-01T03:14:19;99576.88;;;12.44;70.25
17615;BME280;8926;49.720;6.576;2023-05-01T03:16:44;99577.91;;;12.42;71.63
17615;BME280;8926;49.720;6.576;2023-05-01T03:19:10;99578.97;;;12.39;71.65
17615;BME280;8926;49.720;6.576;2023-05-01T03:21:35;99574.56;;;12.40;71.39
17615;BME280;8926;49.720;6.576;2023-05-01T03:24:01;99572.69;;;12.42;71.67
17615;BME280;8926;49.720;6.576;2023-05-01T03:26:27;99568.38;;;12.41;71.55
17615;BME280;8926;49.720;6.576;2023-05-01T03:28:52;99558.44;;;12.46;71.05
17615;BME280;8926;49.720;6.576;2023-05-01T03:31:18;99556.31;;;12.51;70.53
17615;BME280;8926;49.720;6.576;2023-05-01T03:33:43;99554.66;;;12.50;71.10
17615;BME280;8926;49.720;6.576;2023-05-01T03:36:08;99553.19;;;12.46;70.73
17615;BME280;8926;49.720;6.576;2023-05-01T03:38:35;99548.91;;;12.45;71.08
17615;BME280;8926;49.720;6.576;2023-05-01T03:41:01;99549.84;;;12.44;71.09
17615;BME280;8926;49.720;6.576;2023-05-01T03:43:26;99556.53;;;12.48;71.10
17615;BME280;8926;49.720;6.576;2023-05-01T03:45:51;99543.56;;;12.46;70.94
17615;BME280;8926;49.720;6.576;2023-05-01T03:48:17;99550.34;;;12.49;71.23
17615;BME280;8926;49.720;6.576;2023-05-01T03:50:43;99550.13;;;12.52;71.04
17615;BME280;8926;49.720;6.576;2023-05-01T03:53:08;99549.00;;;12.56;70.98
17615;BME280;8926;49.720;6.576;2023-05-01T03:55:33;99549.00;;;12.56;70.94
17615;BME280;8926;49.720;6.576;2023-05-01T03:57:59;99548.78;;;12.59;69.46
17615;BME280;8926;49.720;6.576;2023-05-01T04:00:25;99542.28;;;12.52;70.37
17615;BME280;8926;49.720;6.576;2023-05-01T04:02:50;99549.41;;;12.50;70.21
17615;BME280;8926;49.720;6.576;2023-05-01T04:05:16;99547.97;;;12.46;71.79
17615;BME280;8926;49.720;6.576;2023-05-01T04:07:42;99545.09;;;12.49;70.96
17615;BME280;8926;49.720;6.576;2023-05-01T04:10:07;99546.69;;;12.51;71.07
17615;BME280;8926;49.720;6.576;2023-05-01T04:12:34;99549.19;;;12.53;71.26
17615;BME280;8926;49.720;6.576;2023-05-01T04:14:59;99551.09;;;12.51;71.86
17615;BME280;8926;49.720;6.576;2023-05-01T04:17:24;99553.81;;;12.49;71.12
17615;BME280;8926;49.720;6.576;2023-05-01T04:19:50;99548.34;;;12.52;71.08
17615;BME280;8926;49.720;6.576;2023-05-01T04:22:15;99549.09;;;12.54;70.90
17615;BME280;8926;49.720;6.576;2023-05-01T04:24:40;99543.97;;;12.53;71.98
17615;BME280;8926;49.720;6.576;2023-05-01T04:27:06;99550.88;;;12.54;71.73
17615;BME280;8926;49.720;6.576;2023-05-01T04:29:31;99545.84;;;12.51;71.90
17615;BME280;8926;49.720;6.576;2023-05-01T04:31:56;99553.81;;;12.49;71.78
17615;BME280;8926;49.720;6.576;2023-05-01T04:34:22;99556.31;;;12.51;71.43
17615;BME280;8926;49.720;6.576;2023-05-01T04:36:47;99556.75;;;12.45;71.69
17615;BME280;8926;49.720;6.576;2023-05-01T04:39:13;99552.47;;;12.44;71.62
17615;BME280;8926;49.720;6.576;2023-05-01T04:41:38;99567.34;;;12.43;72.36
17615;BME280;8926;49.720;6.576;2023-05-01T04:44:04;99551.53;;;12.45;71.79
17615;BME280;8926;49.720;6.576;2023-05-01T04:46:29;99552.13;;;12.48;71.91
17615;BME280;8926;49.720;6.576;2023-05-01T04:48:54;99553.50;;;12.54;71.76
17615;BME280;8926;49.720;6.576;2023-05-01T04:51:19;99547.94;;;12.58;71.89
17615;BME280;8926;49.720;6.576;2023-05-01T04:53:45;99555.50;;;12.63;70.42
17615;BME280;8926;49.720;6.576;2023-05-01T04:56:10;99556.34;;;12.64;69.61
17615;BME280;8926;49.720;6.576;2023-05-01T04:58:36;99555.72;;;12.60;70.35
17615;BME280;8926;49.720;6.576;2023-05-01T05:01:01;99555.50;;;12.63;70.27
17615;BME280;8926;49.720;6.576;2023-05-01T05:03:26;99555.50;;;12.63;71.16
17615;BME280;8926;49.720;6.576;2023-05-01T05:05:52;99562.31;;;12.66;71.21
17615;BME280;8926;49.720;6.576;2023-05-01T05:08:17;99550.25;;;12.63;70.84
17615;BME280;8926;49.720;6.576;2023-05-01T05:10:42;99556.34;;;12.64;70.85
17615;BME280;8926;49.720;6.576;2023-05-01T05:13:07;99560.22;;;12.71;70.23
17615;BME280;8926;49.720;6.576;2023-05-01T05:15:34;99559.16;;;12.73;70.58
17615;BME280;8926;49.720;6.576;2023-05-01T05:17:59;99559.06;;;12.75;70.05
17615;BME280;8926;49.720;6.576;2023-05-01T05:20:25;99555.50;;;12.76;70.48
17615;BME280;8926;49.720;6.576;2023-05-01T05:22:50;99563.88;;;12.81;69.68
17615;BME280;8926;49.720;6.576;2023-05-01T05:25:16;99555.72;;;12.85;70.46
17615;BME280;8926;49.720;6.576;2023-05-01T05:27:41;99562.22;;;12.93;69.60
17615;BME280;8926;49.720;6.576;2023-05-01T05:30:07;99565.34;;;12.98;69.27
17615;BME280;8926;49.720;6.576;2023-05-01T05:32:33;99566.78;;;13.02;68.38
17615;BME280;8926;49.720;6.576;2023-05-01T05:34:58;99561.78;;;12.99;68.63
17615;BME280;8926;49.720;6.576;2023-05-01T05:37:24;99558.66;;;12.94;68.76
17615;BME280;8926;49.720;6.576;2023-05-01T05:39:50;99562.22;;;12.93;69.06
17615;BME280;8926;49.720;6.576;2023-05-01T05:42:15;99568.69;;;13.00;68.68
17615;BME280;8926;49.720;6.576;2023-05-01T05:44:41;99566.59;;;13.05;68.97
17615;BME280;8926;49.720;6.576;2023-05-01T05:47:06;99555.88;;;13.08;68.74
17615;BME280;8926;49.720;6.576;2023-05-01T05:49:31;99560.91;;;13.11;67.74
17615;BME280;8926;49.720;6.576;2023-05-01T05:51:57;99559.97;;;13.12;67.73
17615;BME280;8926;49.720;6.576;2023-05-01T05:54:22;99558.84;;;13.16;67.61
17615;BME280;8926;49.720;6.576;2023-05-01T05:56:47;99559.59;;;13.18;67.74
17615;BME280;8926;49.720;6.576;2023-05-01T05:59:12;99554.75;;;13.24;67.47
17615;BME280;8926;49.720;6.576;2023-05-01T06:01:38;99553.97;;;13.35;67.06
17615;BME280;8926;49.720;6.576;2023-05-01T06:04:04;99551.53;;;13.45;66.57
17615;BME280;8926;49.720;6.576;2023-05-01T06:06:31;99555.28;;;13.53;66.61
17615;BME280;8926;49.720;6.576;2023-05-01T06:08:56;99545.06;;;13.62;65.97
17615;BME280;8926;49.720;6.576;2023-05-01T06:11:22;99545.03;;;13.74;65.99
17615;BME280;8926;49.720;6.576;2023-05-01T06:13:47;99546.34;;;13.80;65.85
17615;BME280;8926;49.720;6.576;2023-05-01T06:16:13;99547.19;;;13.80;64.93
17615;BME280;8926;49.720;6.576;2023-05-01T06:18:40;99546.84;;;13.85;65.59
17615;BME280;8926;49.720;6.576;2023-05-01T06:21:05;99539.03;;;13.96;64.68
17615;BME280;8926;49.720;6.576;2023-05-01T06:23:30;99538.09;;;14.08;64.54
17615;BME280;8926;49.720;6.576;2023-05-01T06:25:58;99544.34;;;14.18;64.43
17615;BME280;8926;49.720;6.576;2023-05-01T06:28:23;99547.97;;;14.29;64.24
17615;BME280;8926;49.720;6.576;2023-05-01T06:30:48;99546.31;;;14.39;62.89
17615;BME280;8926;49.720;6.576;2023-05-01T06:33:14;99539.28;;;14.39;62.68
17615;BME280;8926;49.720;6.576;2023-05-01T06:35:40;99539.56;;;14.47;62.96
17615;BME280;8926;49.720;6.576;2023-05-01T06:38:05;99535.03;;;14.60;62.45
17615;BME280;8926;49.720;6.576;2023-05-01T06:40:30;99541.72;;;14.65;62.31
17615;BME280;8926;49.720;6.576;2023-05-01T06:42:59;99546.31;;;14.74;62.32
17615;BME280;8926;49.720;6.576;2023-05-01T06:45:24;99547.13;;;14.74;62.24
17615;BME280;8926;49.720;6.576;2023-05-01T06:47:49;99545.00;;;14.79;61.84
17615;BME280;8926;49.720;6.576;2023-05-01T06:50:14;99541.66;;;14.77;61.29
17615;BME280;8926;49.720;6.576;2023-05-01T06:52:40;99543.44;;;14.77;61.76
17615;BME280;8926;49.720;6.576;2023-05-01T06:55:06;99545.00;;;14.79;61.59
17615;BME280;8926;49.720;6.576;2023-05-01T06:57:31;99544.72;;;14.82;61.31
17615;BME280;8926;49.720;6.576;2023-05-01T06:59:57;99546.66;;;14.80;61.00
17615;BME280;8926;49.720;6.576;2023-05-01T07:02:22;99540.31;;;14.83;61.09
17615;BME280;8926;49.720;6.576;2023-05-01T07:04:47;99544.50;;;14.85;61.42
17615;BME280;8926;49.720;6.576;2023-05-01T07:07:12;99548.59;;;14.78;61.17
17615;BME280;8926;49.720;6.576;2023-05-01T07:09:39;99542.81;;;14.84;61.12
17615;BME280;8926;49.720;6.576;2023-05-01T07:12:05;99551.81;;;14.93;60.90
17615;BME280;8926;49.720;6.576;2023-05-01T07:14:31;99549.06;;;14.94;60.78
17615;BME280;8926;49.720;6.576;2023-05-01T07:16:56;99550.00;;;14.93;60.78
17615;BME280;8926;49.720;6.576;2023-05-01T07:19:22;99546.91;;;15.00;60.59
17615;BME280;8926;49.720;6.576;2023-05-01T07:21:47;99550.03;;;15.05;60.22
17615;BME280;8926;49.720;6.576;2023-05-01T07:24:13;99549.50;;;15.11;59.70
17615;BME280;8926;49.720;6.576;2023-05-01T07:26:38;99549.03;;;15.17;59.88
17615;BME280;8926;49.720;6.576;2023-05-01T07:29:03;99552.88;;;15.24;59.63
17615;BME280;8926;49.720;6.576;2023-05-01T07:31:29;99547.56;;;15.35;59.28
17615;BME280;8926;49.720;6.576;2023-05-01T07:33:55;99547.84;;;15.32;59.36
17615;BME280;8926;49.720;6.576;2023-05-01T07:36:20;99540.75;;;15.44;59.57
17615;BME280;8926;49.720;6.576;2023-05-01T07:38:47;99545.41;;;15.51;58.96
17615;BME280;8926;49.720;6.576;2023-05-01T07:41:12;99549.47;;;15.55;58.20
17615;BME280;8926;49.720;6.576;2023-05-01T07:43:37;99543.28;;;15.56;59.23
17615;BME280;8926;49.720;6.576;2023-05-01T07:46:03;99554.53;;;15.58;58.59
17615;BME280;8926;49.720;6.576;2023-05-01T07:48:30;99543.47;;;15.65;58.40
17615;BME280;8926;49.720;6.576;2023-05-01T07:50:56;99544.84;;;15.59;58.86
17615;BME280;8926;49.720;6.576;2023-05-01T07:53:22;99539.88;;;15.66;59.89
17615;BME280;8926;49.720;6.576;2023-05-01T07:55:47;99553.88;;;15.77;59.72
17615;BME280;8926;49.720;6.576;2023-05-01T07:58:13;99543.94;;;15.81;59.42
17615;BME280;8926;49.720;6.576;2023-05-01T08:00:39;99533.81;;;15.86;59.24
17615;BME280;8926;49.720;6.576;2023-05-01T08:03:04;99539.44;;;15.92;59.48
17615;BME280;8926;49.720;6.576;2023-05-01T08:05:29;99547.34;;;15.92;60.34
17615;BME280;8926;49.720;6.576;2023-05-01T08:07:56;99542.38;;;16.10;59.46
17615;BME280;8926;49.720;6.576;2023-05-01T08:10:21;99546.84;;;16.19;59.54
17615;BME280;8926;49.720;6.576;2023-05-01T08:12:46;99546.41;;;16.14;59.91
17615;BME280;8926;49.720;6.576;2023-05-01T08:15:12;99536.44;;;16.39;59.45
17615;BME280;8926;49.720;6.576;2023-05-01T08:17:37;99533.09;;;16.57;58.87
17615;BME280;8926;49.720;6.576;2023-05-01T08:20:02;99533.16;;;16.67;58.88
17615;BME280;8926;49.720;6.576;2023-05-01T08:22:28;99526.59;;;16.82;59.01
17615;BME280;8926;49.720;6.576;2023-05-01T08:24:54;99522.63;;;16.98;58.09
17615;BME280;8926;49.720;6.576;2023-05-01T08:27:19;99523.38;;;17.19;58.68
17615;BME280;8926;49.720;6.576;2023-05-01T08:29:45;99527.34;;;17.34;57.58
17615;BME280;8926;49.720;6.576;2023-05-01T08:32:10;99523.47;;;17.38;57.29
17615;BME280;8926;49.720;6.576;2023-05-01T08:34:36;99513.44;;;17.32;57.43
17615;BME280;8926;49.720;6.576;2023-05-01T08:37:01;99518.75;;;17.51;57.03
17615;BME280;8926;49.720;6.576;2023-05-01T08:39:26;99509.03;;;17.61;57.07
17615;BME280;8926;49.720;6.576;2023-05-01T08:41:52;99519.66;;;17.81;55.86
17615;BME280;8926;49.720;6.576;2023-05-01T08:44:18;99514.06;;;17.93;56.04
17615;BME280;8926;49.720;6.576;2023-05-01T08:47:08;99507.69;;;18.15;55.25
17615;BME280;8926;49.720;6.576;2023-05-01T08:49:35;99513.72;;;18.54;53.88
17615;BME280;8926;49.720;6.576;2023-05-01T08:52:01;99512.56;;;18.76;54.01
17615;BME280;8926;49.720;6.576;2023-05-01T08:54:30;99506.72;;;19.10;52.64
17615;BME280;8926;49.720;6.576;2023-05-01T08:57:00;99503.34;;;19.80;52.80
17615;BME280;8926;49.720;6.576;2023-05-01T08:59:35;99499.66;;;20.52;51.21
17615;BME280;8926;49.720;6.576;2023-05-01T09:02:05;99493.31;;;20.79;49.98
17615;BME280;8926;49.720;6.576;2023-05-01T09:04:38;99497.41;;;20.99;47.41
17615;BME280;8926;49.720;6.576;2023-05-01T09:07:04;99503.50;;;21.26;47.92
17615;BME280;8926;49.720;6.576;2023-05-01T09:09:30;99494.91;;;21.40;45.99
17615;BME280;8926;49.720;6.576;2023-05-01T09:12:21;99496.28;;;21.60;45.53
17615;BME280;8926;49.720;6.576;2023-05-01T09:14:55;99496.94;;;21.54;44.64
17615;BME280;8926;49.720;6.576;2023-05-01T09:17:22;99493.28;;;21.55;45.05
17615;BME280;8926;49.720;6.576;2023-05-01T09:19:48;99491.47;;;21.56;44.88
17615;BME280;8926;49.720;6.576;2023-05-01T09:22:14;99489.09;;;21.45;43.77
17615;BME280;8926;49.720;6.576;2023-05-01T09:24:40;99496.88;;;21.38;44.39
17615;BME280;8926;49.720;6.576;2023-05-01T09:27:06;99485.59;;;21.28;44.17
17615;BME280;8926;49.720;6.576;2023-05-01T09:29:42;99489.44;;;21.42;44.52
17615;BME280;8926;49.720;6.576;2023-05-01T09:32:26;99486.63;;;21.51;44.72
17615;BME280;8926;49.720;6.576;2023-05-01T09:34:53;99488.94;;;21.46;44.64
17615;BME280;8926;49.720;6.576;2023-05-01T09:37:30;99486.28;;;21.46;44.70
17615;BME280;8926;49.720;6.576;2023-05-01T09:40:09;99489.28;;;21.59;42.15
17615;BME280;8926;49.720;6.576;2023-05-01T09:42:39;99485.00;;;21.66;43.90
17615;BME280;8926;49.720;6.576;2023-05-01T09:45:11;99489.91;;;21.37;42.46
17615;BME280;8926;49.720;6.576;2023-05-01T09:47:38;99490.84;;;21.20;42.93
17615;BME280;8926;49.720;6.576;2023-05-01T09:50:04;99494.03;;;21.23;44.55
17615;BME280;8926;49.720;6.576;2023-05-01T09:52:30;99481.63;;;21.40;42.83
17615;BME280;8926;49.720;6.576;2023-05-01T09:57:38;99484.31;;;21.56;41.88
17615;BME280;8926;49.720;6.576;2023-05-01T10:00:04;99475.03;;;21.93;41.62
17615;BME280;8926;49.720;6.576;2023-05-01T10:02:34;99470.72;;;22.16;41.97
17615;BME280;8926;49.720;6.576;2023-05-01T10:05:00;99466.41;;;22.23;41.70
17615;BME280;8926;49.720;6.576;2023-05-01T10:07:25;99476.69;;;22.43;42.22
17615;BME280;8926;49.720;6.576;2023-05-01T10:09:52;99475.00;;;22.58;40.92
17615;BME280;8926;49.720;6.576;2023-05-01T10:12:25;99466.25;;;22.88;40.30
17615;BME280;8926;49.720;6.576;2023-05-01T10:14:56;99468.06;;;22.96;40.01
17615;BME280;8926;49.720;6.576;2023-05-01T10:17:22;99472.97;;;23.15;40.07
17615;BME280;8926;49.720;6.576;2023-05-01T10:19:48;99475.19;;;23.04;40.01
17615;BME280;8926;49.720;6.576;2023-05-01T10:22:14;99462.56;;;23.28;39.02
17615;BME280;8926;49.720;6.576;2023-05-01T10:24:44;99464.59;;;23.49;38.96
17615;BME280;8926;49.720;6.576;2023-05-01T10:27:11;99458.38;;;23.88;37.65
17615;BME280;8926;49.720;6.576;2023-05-01T10:29:37;99457.75;;;24.00;39.04
17615;BME280;8926;49.720;6.576;2023-05-01T10:32:05;99452.59;;;23.99;37.50
17615;BME280;8926;49.720;6.576;2023-05-01T10:34:37;99452.28;;;23.94;39.28
17615;BME280;8926;49.720;6.576;2023-05-01T10:37:19;99442.56;;;24.39;38.15
17615;BME280;8926;49.720;6.576;2023-05-01T10:39:47;99445.72;;;24.19;38.14
17615;BME280;8926;49.720;6.576;2023-05-01T10:42:12;99448.28;;;24.35;38.70
17615;BME280;8926;49.720;6.576;2023-05-01T10:44:42;99442.81;;;24.44;37.93
17615;BME280;8926;49.720;6.576;2023-05-01T10:50:05;99437.50;;;24.44;37.61
17615;BME280;8926;49.720;6.576;2023-05-01T10:55:37;99435.19;;;24.26;37.43
17615;BME280;8926;49.720;6.576;2023-05-01T10:58:03;99447.91;;;24.01;37.34
17615;BME280;8926;49.720;6.576;2023-05-01T11:00:30;99444.38;;;23.86;38.16
17615;BME280;8926;49.720;6.576;2023-05-01T11:08:34;99435.38;;;24.24;38.06
17615;BME280;8926;49.720;6.576;2023-05-01T11:19:10;99429.94;;;24.32;37.31
17615;BME280;8926;49.720;6.576;2023-05-01T11:21:38;99424.69;;;24.24;36.84
17615;BME280;8926;49.720;6.576;2023-05-01T11:24:08;99422.97;;;24.09;36.55
17615;BME280;8926;49.720;6.576;2023-05-01T11:26:41;99430.63;;;23.74;36.50
17615;BME280;8926;49.720;6.576;2023-05-01T11:29:08;99432.72;;;23.33;37.66
17615;BME280;8926;49.720;6.576;2023-05-01T11:31:35;99434.72;;;23.08;37.98
17615;BME280;8926;49.720;6.576;2023-05-01T11:34:00;99431.00;;;22.86;37.94
17615;BME280;8926;49.720;6.576;2023-05-01T11:36:27;99426.34;;;22.72;38.87
17615;BME280;8926;49.720;6.576;2023-05-01T11:38:55;99425.75;;;22.54;38.74
17615;BME280;8926;49.720;6.576;2023-05-01T11:41:24;99431.75;;;22.40;39.61
17615;BME280;8926;49.720;6.576;2023-05-01T11:43:57;99429.81;;;22.33;39.54
17615;BME280;8926;49.720;6.576;2023-05-01T11:46:27;99428.13;;;22.32;39.81
17615;BME280;8926;49.720;6.576;2023-05-01T11:48:54;99425.44;;;22.41;39.79
17615;BME280;8926;49.720;6.576;2023-05-01T11:51:20;99425.66;;;22.31;39.59
17615;BME280;8926;49.720;6.576;2023-05-01T11:54:08;99421.19;;;22.62;38.68
17615;BME280;8926;49.720;6.576;2023-05-01T11:56:35;99420.59;;;22.99;37.89
17615;BME280;8926;49.720;6.576;2023-05-01T11:59:11;99409.47;;;23.19;38.34
17615;BME280;8926;49.720;6.576;2023-05-01T12:01:39;99411.25;;;23.57;38.13
17615;BME280;8926;49.720;6.576;2023-05-01T12:04:06;99399.75;;;23.94;37.02
17615;BME280;8926;49.720;6.576;2023-05-01T12:06:41;99400.81;;;23.71;35.64
17615;BME280;8926;49.720;6.576;2023-05-01T12:09:24;99403.75;;;23.30;37.30
17615;BME280;8926;49.720;6.576;2023-05-01T12:11:52;99402.50;;;23.41;37.08
17615;BME280;8926;49.720;6.576;2023-05-01T12:14:18;99403.44;;;23.25;37.85
17615;BME280;8926;49.720;6.576;2023-05-01T12:16:44;99405.56;;;23.07;37.38
17615;BME280;8926;49.720;6.576;2023-05-01T12:19:12;99402.75;;;23.00;37.63
17615;BME280;8926;49.720;6.576;2023-05-01T12:21:38;99399.97;;;22.93;37.69
17615;BME280;8926;49.720;6.576;2023-05-01T12:24:15;99416.00;;;22.85;36.97
17615;BME280;8926;49.720;6.576;2023-05-01T12:26:41;99406.38;;;22.68;37.85
17615;BME280;8926;49.720;6.576;2023-05-01T12:29:07;99410.91;;;22.59;38.07
17615;BME280;8926;49.720;6.576;2023-05-01T12:31:33;99410.78;;;22.45;38.45
17615;BME280;8926;49.720;6.576;2023-05-01T12:34:06;99409.13;;;22.35;38.95
17615;BME280;8926;49.720;6.576;2023-05-01T12:36:33;99405.88;;;22.09;39.24
17615;BME280;8926;49.720;6.576;2023-05-01T12:39:07;99410.53;;;21.91;38.83
17615;BME280;8926;49.720;6.576;2023-05-01T12:41:38;99409.56;;;21.76;38.52
17615;BME280;8926;49.720;6.576;2023-05-01T12:44:17;99415.00;;;21.58;39.90
17615;BME280;8926;49.720;6.576;2023-05-01T12:46:44;99407.88;;;21.42;40.61
17615;BME280;8926;49.720;6.576;2023-05-01T12:49:18;99417.50;;;21.43;40.76
17615;BME280;8926;49.720;6.576;2023-05-01T12:51:48;99421.50;;;21.47;40.67
17615;BME280;8926;49.720;6.576;2023-05-01T12:54:28;99426.78;;;21.31;40.96
17615;BME280;8926;49.720;6.576;2023-05-01T12:59:29;99432.66;;;21.09;42.30
17615;BME280;8926;49.720;6.576;2023-05-01T13:02:00;99437.63;;;20.95;43.02
17615;BME280;8926;49.720;6.576;2023-05-01T13:04:26;99431.59;;;20.85;43.41
17615;BME280;8926;49.720;6.576;2023-05-01T13:06:53;99430.59;;;20.78;43.63
17615;BME280;8926;49.720;6.576;2023-05-01T13:09:21;99441.03;;;20.72;44.15
17615;BME280;8926;49.720;6.576;2023-05-01T13:12:00;99436.34;;;20.65;44.65
17615;BME280;8926;49.720;6.576;2023-05-01T13:14:27;99437.78;;;20.60;44.76
17615;BME280;8926;49.720;6.576;2023-05-01T13:16:53;99443.09;;;20.52;44.69
17615;BME280;8926;49.720;6.576;2023-05-01T13:19:28;99447.72;;;20.50;44.78
17615;BME280;8926;49.720;6.576;2023-05-01T13:21:55;99445.41;;;20.55;44.82
17615;BME280;8926;49.720;6.576;2023-05-01T13:24:21;99438.09;;;20.57;44.84
17615;BME280;8926;49.720;6.576;2023-05-01T13:26:47;99433.16;;;20.62;44.66
17615;BME280;8926;49.720;6.576;2023-05-01T13:29:14;99434.88;;;20.71;44.68
17615;BME280;8926;49.720;6.576;2023-05-01T13:31:43;99432.91;;;20.73;44.21
17615;BME280;8926;49.720;6.576;2023-05-01T13:34:09;99432.59;;;20.76;43.94
17615;BME280;8926;49.720;6.576;2023-05-01T13:36:34;99437.88;;;20.76;43.85
17615;BME280;8926;49.720;6.576;2023-05-01T13:39:00;99430.59;;;20.78;43.68
17615;BME280;8926;49.720;6.576;2023-05-01T13:41:26;99428.25;;;20.75;43.38
17615;BME280;8926;49.720;6.576;2023-05-01T13:43:53;99435.91;;;20.78;43.61
17615;BME280;8926;49.720;6.576;2023-05-01T13:46:21;99431.53;;;20.69;43.34
17615;BME280;8926;49.720;6.576;2023-05-01T13:48:47;99441.84;;;20.72;43.53
17615;BME280;8926;49.720;6.576;2023-05-01T13:51:13;99435.91;;;20.78;43.56
17615;BME280;8926;49.720;6.576;2023-05-01T13:53:41;99441.69;;;20.82;43.70